Time;durP1;ratioP1;P1;durP2;ratioP2;P2;SDS_P1;SDS_P2;PMS_P1;PMS_P2;Temp;Humidity;BMP_temperature;BMP_pressure;BME280_temperature;BME280_humidity;BME280_pressure;Samples;Min_cycle;Max_cycle;Signal;HPM_P1;HPM_P2
2022/10/16 00:00:17;;;;;;;0.57;0.50;;;13.50;90.30;;;;;;6304963;22;20301;-76
2022/10/16 00:02:42;;;;;;;0.63;0.47;;;13.40;90.20;;;;;;6276915;22;20027;-77
2022/10/16 00:05:08;;;;;;;0.40;0.32;;;13.40;90.20;;;;;;6223795;22;20011;-76
2022/10/16 00:07:34;;;;;;;0.47;0.47;;;13.40;90.20;;;;;;6303894;22;20041;-76
2022/10/16 00:09:59;;;;;;;1.35;0.40;;;13.40;90.50;;;;;;6304526;22;20006;-76
2022/10/16 00:12:25;;;;;;;0.93;0.65;;;13.40;90.20;;;;;;6304386;22;20431;-76
2022/10/16 00:14:51;;;;;;;0.80;0.57;;;13.50;90.30;;;;;;6304496;22;20019;-76
2022/10/16 00:17:17;;;;;;;0.55;0.40;;;13.50;90.30;;;;;;6304482;22;20034;-76
2022/10/16 00:19:43;;;;;;;0.63;0.43;;;13.40;90.30;;;;;;6304186;22;20324;-76
2022/10/16 00:22:09;;;;;;;0.77;0.50;;;13.40;90.20;;;;;;6304858;22;20312;-76
2022/10/16 00:24:34;;;;;;;0.38;0.38;;;13.40;90.30;;;;;;6274997;22;20026;-76
2022/10/16 00:27:00;;;;;;;0.60;0.60;;;13.30;90.30;;;;;;6304568;22;20004;-77
2022/10/16 00:29:26;;;;;;;0.40;0.40;;;13.30;90.30;;;;;;6304339;22;20004;-75
2022/10/16 00:31:51;;;;;;;0.85;0.60;;;13.30;90.60;;;;;;6304577;22;20022;-76
2022/10/16 00:34:17;;;;;;;0.55;0.52;;;13.30;90.30;;;;;;6276899;22;20030;-75
2022/10/16 00:36:43;;;;;;;0.60;0.60;;;13.20;90.30;;;;;;6304744;22;20007;-76
2022/10/16 00:39:10;;;;;;;1.17;0.60;;;13.20;90.40;;;;;;6304129;22;20428;-76
2022/10/16 00:41:36;;;;;;;1.45;0.50;;;13.20;90.40;;;;;;6251243;22;20064;-76
2022/10/16 00:44:23;;;;;;;1.33;0.65;;;13.20;90.40;;;;;;6275924;22;20011;-76
2022/10/16 00:46:50;;;;;;;1.08;0.80;;;13.20;90.40;;;;;;6303822;22;20140;-76
2022/10/16 00:49:19;;;;;;;1.58;0.80;;;13.20;90.40;;;;;;6304137;22;20003;-76
2022/10/16 00:51:49;;;;;;;1.27;0.73;;;13.10;90.30;;;;;;6303712;22;20006;-75
2022/10/16 00:54:28;;;;;;;2.30;0.85;;;13.20;90.30;;;;;;6304187;22;20082;-76
2022/10/16 00:56:56;;;;;;;1.15;0.70;;;13.20;90.30;;;;;;6276239;22;20011;-75
2022/10/16 00:59:35;;;;;;;0.77;0.60;;;13.20;90.30;;;;;;6304068;22;20006;-75
2022/10/16 01:02:02;;;;;;;0.98;0.70;;;13.20;90.40;;;;;;6275280;22;20002;-76
2022/10/16 01:04:35;;;;;;;1.27;0.80;;;13.20;90.30;;;;;;6304420;22;20010;-76
2022/10/16 01:07:12;;;;;;;1.83;0.90;;;13.20;90.30;;;;;;6276429;22;20262;-76
2022/10/16 01:09:59;;;;;;;0.75;0.50;;;13.30;90.30;;;;;;6303792;22;20011;-76
2022/10/16 01:12:49;;;;;;;1.38;0.70;;;13.20;90.30;;;;;;6250326;22;20091;-76
2022/10/16 01:15:26;;;;;;;0.40;0.40;;;13.20;90.30;;;;;;6303938;22;20057;-75
2022/10/16 01:18:10;;;;;;;1.17;0.75;;;13.20;90.60;;;;;;6278071;22;20074;-76
2022/10/16 01:20:52;;;;;;;1.02;0.70;;;13.20;90.40;;;;;;6303860;22;20001;-76
2022/10/16 01:23:53;;;;;;;0.65;0.60;;;13.10;90.30;;;;;;6270086;22;20008;-76
2022/10/16 01:26:44;;;;;;;1.13;0.80;;;13.20;90.40;;;;;;6277001;22;20049;-76
2022/10/16 01:29:18;;;;;;;0.65;0.65;;;13.20;90.30;;;;;;6301858;22;20323;-75
2022/10/16 01:31:59;;;;;;;0.43;0.43;;;13.20;90.30;;;;;;6304056;22;20049;-76
2022/10/16 01:34:34;;;;;;;0.60;0.50;;;13.20;90.30;;;;;;6303529;22;20007;-75
2022/10/16 01:37:08;;;;;;;0.52;0.50;;;13.20;90.40;;;;;;6250461;22;20299;-76
2022/10/16 01:39:38;;;;;;;0.50;0.50;;;13.20;90.40;;;;;;6303804;22;20048;-75
2022/10/16 01:42:11;;;;;;;0.80;0.80;;;13.20;90.40;;;;;;6275533;22;20316;-76
2022/10/16 01:44:38;;;;;;;1.05;0.70;;;13.20;90.40;;;;;;6303876;22;20011;-75
2022/10/16 01:47:05;;;;;;;0.70;0.60;;;13.20;90.40;;;;;;6303850;22;20060;-76
2022/10/16 01:49:34;;;;;;;1.40;0.68;;;13.10;90.40;;;;;;6303690;22;20053;-76
2022/10/16 01:52:05;;;;;;;0.30;0.30;;;13.20;90.40;;;;;;6273589;22;20075;-75
2022/10/16 01:54:36;;;;;;;0.50;0.50;;;13.20;90.30;;;;;;6305428;22;20023;-75
2022/10/16 01:57:05;;;;;;;0.93;0.57;;;13.20;90.40;;;;;;6303633;22;19999;-76
2022/10/16 01:59:34;;;;;;;0.57;0.57;;;13.20;90.40;;;;;;6276410;22;20647;-75
2022/10/16 02:02:05;;;;;;;0.60;0.55;;;13.30;90.40;;;;;;6269265;22;20000;-76
2022/10/16 02:04:37;;;;;;;1.50;0.70;;;13.30;90.40;;;;;;6275081;22;20007;-76
2022/10/16 02:07:03;;;;;;;0.50;0.50;;;13.30;90.40;;;;;;6272927;22;20410;-75
2022/10/16 02:09:30;;;;;;;0.40;0.40;;;13.20;90.40;;;;;;6303297;22;20006;-76
2022/10/16 02:11:59;;;;;;;0.40;0.40;;;13.30;90.40;;;;;;6250694;22;20034;-75
2022/10/16 02:14:26;;;;;;;1.15;0.50;;;13.30;90.40;;;;;;6303606;22;20019;-76
2022/10/16 02:16:52;;;;;;;0.50;0.50;;;13.20;90.40;;;;;;6303592;22;20331;-76
2022/10/16 02:19:20;;;;;;;0.50;0.50;;;13.30;90.40;;;;;;6303608;22;19996;-75
2022/10/16 02:22:00;;;;;;;0.60;0.55;;;13.30;90.40;;;;;;6303312;22;19999;-76
2022/10/16 02:24:54;;;;;;;1.08;0.63;;;13.30;90.40;;;;;;6303736;22;20082;-76
2022/10/16 02:27:43;;;;;;;0.50;0.50;;;13.30;90.40;;;;;;6303171;22;20007;-76
2022/10/16 02:30:19;;;;;;;1.30;0.60;;;13.30;90.40;;;;;;6254493;22;20003;-76
2022/10/16 02:32:47;;;;;;;0.50;0.50;;;13.40;90.40;;;;;;6278479;22;20011;-76
2022/10/16 02:35:17;;;;;;;0.55;0.52;;;13.30;90.40;;;;;;6276858;22;20300;-75
2022/10/16 02:37:43;;;;;;;0.47;0.47;;;13.30;90.40;;;;;;6274750;22;20015;-75
2022/10/16 02:40:10;;;;;;;0.90;0.60;;;13.30;90.40;;;;;;6304598;22;19998;-75
2022/10/16 02:42:38;;;;;;;0.63;0.50;;;13.40;90.50;;;;;;6273967;22;20319;-76
2022/10/16 02:45:05;;;;;;;0.57;0.45;;;13.20;90.40;;;;;;6269712;22;20008;-75
2022/10/16 02:47:30;;;;;;;0.50;0.50;;;13.40;90.50;;;;;;6276993;22;20408;-75
2022/10/16 02:49:56;;;;;;;0.40;0.40;;;13.30;90.50;;;;;;6277351;22;20031;-76
2022/10/16 02:52:23;;;;;;;0.50;0.50;;;13.30;90.50;;;;;;6304578;22;20018;-76
2022/10/16 02:54:49;;;;;;;0.85;0.47;;;13.20;90.50;;;;;;6299789;22;20003;-75
2022/10/16 02:57:15;;;;;;;0.45;0.45;;;13.30;90.50;;;;;;6304570;22;20052;-75
2022/10/16 02:59:41;;;;;;;0.73;0.60;;;13.30;90.60;;;;;;6304699;22;20423;-75
2022/10/16 03:02:06;;;;;;;0.57;0.40;;;13.20;90.60;;;;;;6304675;22;20029;-76
2022/10/16 03:04:32;;;;;;;0.45;0.40;;;13.20;90.60;;;;;;6276355;22;20009;-76
2022/10/16 03:06:58;;;;;;;0.30;0.30;;;13.20;90.60;;;;;;6304876;22;20380;-75
2022/10/16 03:09:24;;;;;;;0.30;0.30;;;13.20;90.60;;;;;;6305253;22;20000;-75
2022/10/16 03:11:49;;;;;;;0.52;0.50;;;13.20;90.70;;;;;;6304206;22;20007;-75
2022/10/16 03:14:15;;;;;;;0.28;0.28;;;13.20;90.70;;;;;;6269455;22;20023;-75
2022/10/16 03:16:41;;;;;;;0.30;0.30;;;13.20;90.70;;;;;;6304783;22;20010;-76
2022/10/16 03:19:07;;;;;;;0.73;0.40;;;13.20;90.70;;;;;;6275271;22;20057;-76
2022/10/16 03:21:32;;;;;;;0.52;0.40;;;13.20;90.70;;;;;;6251036;22;19999;-76
2022/10/16 03:23:58;;;;;;;0.30;0.30;;;13.10;90.70;;;;;;6277300;22;20003;-75
2022/10/16 03:26:24;;;;;;;0.30;0.30;;;13.10;90.70;;;;;;6250513;22;20011;-76
2022/10/16 03:28:50;;;;;;;0.45;0.38;;;13.10;90.70;;;;;;6304552;22;19999;-76
2022/10/16 03:31:15;;;;;;;0.28;0.28;;;13.10;90.80;;;;;;6304891;22;20007;-76
2022/10/16 03:33:41;;;;;;;0.30;0.30;;;13.10;90.70;;;;;;6304932;22;20042;-75
2022/10/16 03:36:07;;;;;;;0.40;0.40;;;13.10;90.70;;;;;;6277100;22;20000;-76
2022/10/16 03:38:32;;;;;;;0.35;0.35;;;13.10;90.70;;;;;;6277608;22;20012;-75
2022/10/16 03:40:58;;;;;;;0.38;0.38;;;13.10;90.70;;;;;;6276261;22;20066;-76
2022/10/16 03:43:24;;;;;;;0.22;0.22;;;13.20;90.70;;;;;;6303587;22;20077;-75
2022/10/16 03:45:51;;;;;;;0.63;0.43;;;13.20;90.70;;;;;;6274850;22;20012;-75
2022/10/16 03:48:18;;;;;;;0.70;0.30;;;13.10;90.70;;;;;;6304385;22;20007;-75
2022/10/16 03:50:44;;;;;;;0.43;0.30;;;13.20;90.70;;;;;;6274154;22;20015;-75
2022/10/16 03:53:09;;;;;;;0.77;0.43;;;13.10;90.70;;;;;;6304685;22;20344;-76
2022/10/16 03:55:35;;;;;;;0.43;0.43;;;13.20;90.80;;;;;;6276108;22;20125;-76
2022/10/16 03:58:01;;;;;;;0.57;0.40;;;13.10;90.70;;;;;;6276929;22;19998;-76
2022/10/16 04:00:27;;;;;;;0.30;0.30;;;13.10;90.70;;;;;;6305114;22;20003;-75
2022/10/16 04:02:53;;;;;;;1.10;0.50;;;13.10;90.70;;;;;;6304807;22;20378;-76
2022/10/16 04:05:19;;;;;;;0.38;0.38;;;13.10;90.70;;;;;;6304920;22;20056;-76
2022/10/16 04:07:44;;;;;;;0.30;0.30;;;13.00;90.70;;;;;;6248579;22;20859;-76
2022/10/16 04:10:10;;;;;;;0.82;0.40;;;13.10;90.80;;;;;;6304275;22;20312;-75
2022/10/16 04:12:36;;;;;;;0.30;0.30;;;13.10;90.80;;;;;;6275892;22;20047;-76
2022/10/16 04:15:02;;;;;;;0.40;0.40;;;13.10;90.80;;;;;;6305055;22;20062;-76
2022/10/16 04:17:28;;;;;;;0.50;0.50;;;13.10;90.80;;;;;;6304553;22;20003;-76
2022/10/16 04:19:53;;;;;;;0.40;0.40;;;13.10;90.80;;;;;;6276118;22;20042;-76
2022/10/16 04:22:19;;;;;;;1.83;0.70;;;13.10;90.70;;;;;;6275457;22;20049;-76
2022/10/16 04:24:45;;;;;;;0.40;0.40;;;13.10;90.70;;;;;;6272238;22;20015;-76
2022/10/16 04:27:11;;;;;;;0.57;0.45;;;13.10;90.70;;;;;;6275118;22;19996;-76
2022/10/16 04:29:36;;;;;;;0.70;0.60;;;13.10;90.60;;;;;;6275942;22;20011;-75
2022/10/16 04:32:02;;;;;;;0.32;0.32;;;13.20;90.70;;;;;;6304974;22;20305;-76
2022/10/16 04:34:28;;;;;;;0.50;0.47;;;13.20;90.70;;;;;;6304648;22;20305;-75
2022/10/16 04:36:54;;;;;;;0.32;0.32;;;13.20;90.70;;;;;;6304664;22;20011;-76
2022/10/16 04:39:20;;;;;;;0.45;0.40;;;13.10;90.60;;;;;;6277388;22;20007;-75
2022/10/16 04:41:45;;;;;;;0.40;0.40;;;13.20;90.70;;;;;;6251544;22;20011;-75
2022/10/16 04:44:11;;;;;;;0.40;0.40;;;13.10;90.60;;;;;;6277833;22;20076;-75
2022/10/16 04:46:37;;;;;;;0.38;0.38;;;13.10;90.70;;;;;;6276869;22;20052;-75
2022/10/16 04:49:03;;;;;;;0.70;0.50;;;13.20;90.70;;;;;;6277837;22;20099;-75
2022/10/16 04:51:29;;;;;;;0.47;0.30;;;13.10;90.70;;;;;;6276957;22;20014;-75
2022/10/16 04:53:55;;;;;;;0.30;0.30;;;13.10;90.70;;;;;;6304518;22;20068;-75
2022/10/16 04:56:21;;;;;;;0.73;0.40;;;13.00;90.70;;;;;;6272875;22;20000;-75
2022/10/16 04:58:47;;;;;;;0.20;0.20;;;13.00;90.80;;;;;;6305058;22;20049;-75
2022/10/16 05:01:13;;;;;;;0.35;0.30;;;13.00;90.80;;;;;;6305191;22;20420;-75
2022/10/16 05:03:39;;;;;;;0.90;0.50;;;13.00;90.80;;;;;;6304843;22;20009;-76
2022/10/16 05:06:06;;;;;;;0.32;0.30;;;13.00;90.80;;;;;;6304774;22;20007;-76
2022/10/16 05:08:32;;;;;;;0.20;0.20;;;13.00;90.80;;;;;;6277618;22;20052;-76
2022/10/16 05:10:58;;;;;;;0.20;0.20;;;13.00;90.80;;;;;;6304709;22;20007;-76
2022/10/16 05:13:23;;;;;;;0.30;0.30;;;13.00;90.80;;;;;;6276986;22;20003;-75
2022/10/16 05:15:49;;;;;;;0.68;0.40;;;13.00;90.80;;;;;;6304354;22;20363;-75
2022/10/16 05:18:16;;;;;;;0.30;0.30;;;13.00;90.80;;;;;;6276817;22;20031;-76
2022/10/16 05:20:42;;;;;;;0.68;0.50;;;12.90;90.80;;;;;;6251598;22;20003;-75
2022/10/16 05:23:10;;;;;;;0.55;0.30;;;13.00;90.90;;;;;;6304001;22;20011;-76
2022/10/16 05:25:36;;;;;;;1.88;0.55;;;13.00;90.90;;;;;;6304436;22;20010;-75
2022/10/16 05:28:02;;;;;;;1.02;0.40;;;12.80;90.90;;;;;;6274674;22;20070;-76
2022/10/16 05:30:27;;;;;;;0.60;0.45;;;12.90;90.90;;;;;;6275556;22;20371;-75
2022/10/16 05:32:53;;;;;;;0.52;0.47;;;12.90;91.00;;;;;;6275989;22;20015;-75
2022/10/16 05:35:20;;;;;;;0.50;0.20;;;12.80;91.00;;;;;;6249695;22;20004;-75
2022/10/16 05:37:46;;;;;;;0.32;0.30;;;12.80;91.00;;;;;;6274991;22;20007;-76
2022/10/16 05:40:13;;;;;;;0.30;0.30;;;12.80;91.00;;;;;;6250790;22;20367;-76
2022/10/16 05:42:39;;;;;;;0.60;0.40;;;12.80;91.30;;;;;;6304539;22;20012;-75
2022/10/16 05:45:08;;;;;;;0.40;0.40;;;12.70;91.00;;;;;;6304007;22;20006;-75
2022/10/16 05:47:34;;;;;;;0.30;0.30;;;12.70;91.10;;;;;;6303706;22;20087;-75
2022/10/16 05:50:00;;;;;;;0.20;0.20;;;12.70;91.10;;;;;;6305595;22;20007;-76
2022/10/16 05:52:28;;;;;;;0.40;0.30;;;12.70;91.10;;;;;;6303574;22;20022;-76
2022/10/16 05:54:55;;;;;;;0.30;0.28;;;12.70;91.20;;;;;;6244825;22;20427;-76
2022/10/16 05:57:21;;;;;;;0.25;0.25;;;12.60;91.20;;;;;;6277100;22;19995;-76
2022/10/16 05:59:47;;;;;;;0.20;0.20;;;12.60;91.20;;;;;;6304242;22;20057;-76
2022/10/16 06:02:14;;;;;;;1.00;0.45;;;12.60;91.20;;;;;;6304052;22;20008;-76
2022/10/16 06:04:40;;;;;;;0.40;0.30;;;12.50;91.20;;;;;;6304259;22;20007;-76
2022/10/16 06:07:05;;;;;;;0.20;0.20;;;12.60;91.20;;;;;;6252165;22;20086;-76
2022/10/16 06:09:31;;;;;;;0.55;0.38;;;12.50;91.20;;;;;;6276340;22;20003;-76
2022/10/16 06:11:57;;;;;;;0.73;0.50;;;12.60;91.20;;;;;;6276991;22;20431;-76
2022/10/16 06:14:23;;;;;;;0.30;0.30;;;12.60;91.20;;;;;;6307119;22;20011;-76
2022/10/16 06:16:48;;;;;;;0.40;0.40;;;12.60;91.20;;;;;;6277981;22;20012;-76
2022/10/16 06:19:16;;;;;;;0.20;0.20;;;12.60;91.20;;;;;;6251826;22;20427;-76
2022/10/16 06:21:41;;;;;;;0.63;0.50;;;12.50;91.20;;;;;;6277689;22;20007;-76
2022/10/16 06:24:08;;;;;;;0.30;0.30;;;12.60;91.20;;;;;;6305518;22;20086;-76
2022/10/16 06:26:34;;;;;;;0.60;0.40;;;12.60;91.20;;;;;;6305327;22;20022;-76
2022/10/16 06:29:00;;;;;;;0.70;0.30;;;12.60;91.20;;;;;;6305751;22;20355;-76
2022/10/16 06:31:30;;;;;;;0.40;0.40;;;12.60;91.20;;;;;;6299360;22;20004;-76
2022/10/16 06:33:56;;;;;;;0.40;0.30;;;12.60;91.10;;;;;;6305516;22;20042;-76
2022/10/16 06:36:22;;;;;;;0.82;0.35;;;12.60;91.10;;;;;;6277592;22;20007;-76
2022/10/16 06:38:48;;;;;;;0.73;0.47;;;12.70;91.10;;;;;;6304970;22;20000;-77
2022/10/16 06:41:17;;;;;;;0.40;0.40;;;12.70;91.10;;;;;;6305737;22;20052;-76
2022/10/16 06:43:44;;;;;;;0.43;0.40;;;12.80;91.10;;;;;;6303462;22;20006;-76
2022/10/16 06:46:11;;;;;;;0.32;0.30;;;12.80;91.00;;;;;;6305652;22;20010;-76
2022/10/16 06:48:38;;;;;;;0.60;0.40;;;12.80;91.00;;;;;;6276984;22;19999;-76
2022/10/16 06:51:08;;;;;;;0.30;0.30;;;12.80;91.00;;;;;;6305663;22;20079;-76
2022/10/16 06:53:36;;;;;;;0.43;0.43;;;13.10;91.00;;;;;;6305280;22;20007;-76
2022/10/16 06:56:16;;;;;;;1.05;0.55;;;13.10;90.90;;;;;;6305230;22;20022;-76
2022/10/16 06:58:43;;;;;;;0.40;0.40;;;13.10;90.90;;;;;;6303544;22;20006;-76
2022/10/16 07:01:10;;;;;;;0.50;0.50;;;13.10;90.80;;;;;;6276564;22;20027;-76
2022/10/16 07:03:38;;;;;;;0.47;0.45;;;13.10;90.80;;;;;;6277628;22;19999;-77
2022/10/16 07:06:05;;;;;;;0.77;0.50;;;13.20;90.80;;;;;;6305586;22;20004;-76
2022/10/16 07:08:33;;;;;;;0.57;0.47;;;13.20;90.70;;;;;;6274458;22;20012;-76
2022/10/16 07:11:00;;;;;;;1.05;0.43;;;13.20;90.70;;;;;;6276297;22;20073;-76
2022/10/16 07:13:26;;;;;;;0.30;0.30;;;13.30;90.70;;;;;;6252816;22;20042;-76
2022/10/16 07:15:52;;;;;;;0.63;0.40;;;13.30;90.70;;;;;;6304879;22;20006;-76
2022/10/16 07:18:18;;;;;;;0.50;0.50;;;13.30;90.70;;;;;;6305578;22;20007;-76
2022/10/16 07:20:44;;;;;;;1.20;0.50;;;13.30;90.70;;;;;;6305000;22;20011;-76
2022/10/16 07:23:09;;;;;;;0.75;0.50;;;13.40;90.70;;;;;;6305208;22;20035;-76
2022/10/16 07:25:35;;;;;;;0.52;0.45;;;13.40;90.70;;;;;;6304649;22;20006;-76
2022/10/16 07:28:01;;;;;;;0.60;0.50;;;13.40;90.70;;;;;;6304986;22;20008;-76
2022/10/16 07:30:27;;;;;;;0.40;0.40;;;13.40;90.70;;;;;;6275185;22;20012;-76
2022/10/16 07:32:52;;;;;;;1.00;0.50;;;13.50;90.70;;;;;;6278089;22;20003;-76
2022/10/16 07:35:18;;;;;;;0.75;0.60;;;13.50;90.70;;;;;;6305484;22;20003;-76
2022/10/16 07:37:45;;;;;;;0.68;0.50;;;13.50;90.70;;;;;;6277484;22;20446;-77
2022/10/16 07:40:11;;;;;;;0.55;0.40;;;13.50;90.70;;;;;;6304888;22;20478;-76
2022/10/16 07:42:37;;;;;;;0.50;0.50;;;13.60;90.70;;;;;;6276300;22;20003;-77
2022/10/16 07:45:03;;;;;;;0.80;0.50;;;13.50;90.60;;;;;;6279146;22;20006;-76
2022/10/16 07:47:28;;;;;;;0.85;0.60;;;13.60;90.60;;;;;;6305238;22;20039;-76
2022/10/16 07:49:54;;;;;;;1.15;0.65;;;13.70;90.70;;;;;;6305081;22;20006;-76
2022/10/16 07:52:20;;;;;;;1.27;0.50;;;13.70;90.60;;;;;;6305002;22;20000;-76
2022/10/16 07:54:46;;;;;;;0.60;0.60;;;13.80;90.60;;;;;;6277770;22;19995;-76
2022/10/16 07:57:18;;;;;;;0.70;0.50;;;13.90;90.60;;;;;;6249021;22;20000;-76
2022/10/16 07:59:44;;;;;;;0.57;0.57;;;14.00;90.50;;;;;;6276837;22;19999;-76
2022/10/16 08:02:09;;;;;;;1.05;0.63;;;14.00;90.40;;;;;;6305097;22;20003;-76
2022/10/16 08:04:35;;;;;;;0.80;0.60;;;14.10;90.40;;;;;;6307113;22;20438;-75
2022/10/16 08:07:01;;;;;;;0.52;0.50;;;14.10;90.40;;;;;;6275032;22;20011;-76
2022/10/16 08:09:26;;;;;;;0.55;0.52;;;14.10;90.40;;;;;;6305137;22;20003;-76
2022/10/16 08:11:52;;;;;;;0.95;0.60;;;14.10;90.40;;;;;;6305397;22;20011;-76
2022/10/16 08:14:18;;;;;;;2.50;0.57;;;14.30;90.30;;;;;;6304954;22;20086;-76
2022/10/16 08:16:44;;;;;;;1.05;0.60;;;14.30;90.20;;;;;;6277266;22;20010;-76
2022/10/16 08:19:10;;;;;;;0.60;0.60;;;14.40;90.20;;;;;;6304644;22;20068;-76
2022/10/16 08:21:35;;;;;;;0.73;0.60;;;14.40;90.20;;;;;;6305059;22;20502;-76
2022/10/16 08:24:01;;;;;;;0.80;0.60;;;14.40;90.20;;;;;;6304948;22;20014;-76
2022/10/16 08:26:27;;;;;;;0.82;0.65;;;14.60;90.20;;;;;;6277124;22;20003;-75
2022/10/16 08:28:53;;;;;;;0.52;0.50;;;14.60;90.20;;;;;;6271428;22;20010;-76
2022/10/16 08:31:19;;;;;;;0.38;0.38;;;14.60;90.10;;;;;;6305298;22;20403;-76
2022/10/16 08:33:46;;;;;;;1.05;0.60;;;14.60;90.00;;;;;;6277343;22;20009;-76
2022/10/16 08:36:12;;;;;;;0.43;0.43;;;14.70;90.10;;;;;;6304764;22;20006;-76
2022/10/16 08:38:39;;;;;;;0.90;0.60;;;14.60;90.10;;;;;;6303690;22;19999;-76
2022/10/16 08:41:27;;;;;;;1.35;0.65;;;14.70;90.10;;;;;;6305710;22;20004;-76
2022/10/16 08:44:26;;;;;;;1.17;0.50;;;14.60;90.10;;;;;;6301399;22;20335;-76
2022/10/16 08:47:22;;;;;;;0.40;0.40;;;14.70;90.10;;;;;;6283736;22;19999;-75
2022/10/16 08:49:58;;;;;;;0.70;0.50;;;14.70;90.10;;;;;;6280660;22;20007;-76
2022/10/16 08:52:33;;;;;;;1.88;0.50;;;14.70;90.10;;;;;;6305148;22;20436;-75
2022/10/16 08:54:59;;;;;;;0.85;0.50;;;14.70;90.10;;;;;;6304580;22;20003;-75
2022/10/16 08:57:26;;;;;;;0.73;0.57;;;14.70;90.10;;;;;;6304370;22;20006;-76
2022/10/16 08:59:54;;;;;;;0.70;0.60;;;14.70;90.10;;;;;;6250059;22;20000;-75
2022/10/16 09:02:29;;;;;;;0.75;0.65;;;14.80;90.10;;;;;;6277886;22;20424;-75
2022/10/16 09:05:13;;;;;;;1.63;0.73;;;14.80;90.10;;;;;;6275126;22;20073;-75
2022/10/16 09:07:51;;;;;;;1.10;0.60;;;14.80;90.10;;;;;;6276852;22;20086;-75
2022/10/16 09:10:38;;;;;;;1.23;0.50;;;14.70;90.00;;;;;;6279362;22;20396;-75
2022/10/16 09:13:18;;;;;;;1.65;0.60;;;14.80;90.00;;;;;;6303600;22;20007;-75
2022/10/16 09:15:55;;;;;;;0.70;0.47;;;14.90;90.10;;;;;;6270088;22;20166;-75
2022/10/16 09:18:30;;;;;;;0.40;0.40;;;14.80;90.00;;;;;;6277912;22;20141;-76
2022/10/16 09:21:05;;;;;;;0.55;0.47;;;14.80;90.00;;;;;;6304954;22;20050;-75
2022/10/16 09:23:36;;;;;;;0.68;0.40;;;14.90;90.00;;;;;;6278778;22;20004;-75
2022/10/16 09:26:03;;;;;;;1.50;0.60;;;14.90;90.00;;;;;;6302922;22;20007;-75
2022/10/16 09:28:29;;;;;;;0.73;0.50;;;15.00;90.00;;;;;;6273627;22;20288;-75
2022/10/16 09:30:55;;;;;;;2.00;0.60;;;15.00;89.90;;;;;;6251477;22;20011;-75
2022/10/16 09:33:25;;;;;;;0.82;0.40;;;15.00;89.80;;;;;;6276763;22;20003;-75
2022/10/16 09:35:58;;;;;;;1.02;0.68;;;15.00;89.70;;;;;;6304663;22;20052;-75
2022/10/16 09:38:29;;;;;;;0.50;0.50;;;15.10;89.70;;;;;;6277168;22;20415;-75
2022/10/16 09:41:01;;;;;;;0.68;0.47;;;15.10;89.60;;;;;;6277000;22;20081;-75
2022/10/16 09:43:34;;;;;;;2.10;0.77;;;15.10;89.60;;;;;;6305393;22;20082;-75
2022/10/16 09:46:03;;;;;;;1.40;0.90;;;15.20;89.50;;;;;;6275297;22;20332;-76
2022/10/16 09:48:48;;;;;;;0.82;0.60;;;15.30;89.30;;;;;;6306197;22;20095;-75
2022/10/16 09:51:35;;;;;;;1.58;0.50;;;15.20;89.10;;;;;;6303739;22;20000;-76
2022/10/16 09:54:20;;;;;;;1.08;0.52;;;15.20;89.10;;;;;;6305778;22;20384;-75
2022/10/16 09:56:51;;;;;;;1.25;0.70;;;15.30;89.20;;;;;;6305685;22;20092;-75
2022/10/16 09:59:19;;;;;;;;;;;15.30;89.20;;;;;;6280492;22;19999;-75
2022/10/16 10:01:47;;;;;;;1.35;0.55;;;15.20;89.10;;;;;;6275767;22;19973;-75
2022/10/16 10:04:14;;;;;;;1.85;0.60;;;15.30;89.20;;;;;;6277825;22;20499;-75
2022/10/16 10:06:54;;;;;;;1.20;0.60;;;15.30;89.10;;;;;;6305649;22;20087;-76
2022/10/16 10:09:26;;;;;;;1.85;0.50;;;15.40;88.90;;;;;;6305709;22;20450;-76
2022/10/16 10:12:02;;;;;;;0.85;0.50;;;15.50;88.80;;;;;;6272659;22;20000;-76
2022/10/16 10:14:39;;;;;;;2.92;0.65;;;15.50;88.80;;;;;;6275703;22;20007;-76
2022/10/16 10:17:18;;;;;;;1.35;0.50;;;15.50;88.80;;;;;;6276843;22;20004;-76
2022/10/16 10:19:55;;;;;;;1.35;0.40;;;15.60;88.70;;;;;;6305299;22;20077;-75
2022/10/16 10:22:28;;;;;;;0.88;0.47;;;15.60;88.60;;;;;;6305810;22;20003;-76
2022/10/16 10:25:16;;;;;;;1.52;0.47;;;15.70;88.50;;;;;;6305826;22;20006;-76
2022/10/16 10:28:20;;;;;;;1.17;0.40;;;15.60;88.20;;;;;;6279711;22;20070;-75
2022/10/16 10:31:14;;;;;;;0.90;0.45;;;15.80;88.30;;;;;;6273442;22;20011;-76
2022/10/16 10:34:18;;;;;;;0.80;0.40;;;15.80;88.10;;;;;;6305019;22;20035;-76
2022/10/16 10:36:55;;;;;;;2.28;0.60;;;15.90;88.10;;;;;;6256496;22;20107;-76
2022/10/16 10:39:28;;;;;;;1.25;0.45;;;16.00;88.00;;;;;;6254134;22;19999;-76
2022/10/16 10:42:22;;;;;;;1.80;0.40;;;15.90;87.90;;;;;;6304905;22;20003;-76
2022/10/16 10:45:21;;;;;;;1.10;0.63;;;16.00;87.80;;;;;;6305250;22;20428;-76
2022/10/16 10:48:00;;;;;;;0.95;0.65;;;16.00;87.60;;;;;;6305157;22;20082;-75
2022/10/16 10:50:45;;;;;;;1.50;0.70;;;16.20;87.50;;;;;;6305004;22;19999;-75
2022/10/16 10:53:27;;;;;;;0.80;0.50;;;16.20;87.20;;;;;;6303955;22;20004;-76
2022/10/16 10:56:13;;;;;;;0.70;0.47;;;16.20;87.00;;;;;;6275101;22;20137;-75
2022/10/16 10:59:12;;;;;;;1.85;0.45;;;16.20;86.90;;;;;;6276001;22;19996;-75
2022/10/16 11:01:50;;;;;;;0.52;0.38;;;16.40;86.80;;;;;;6282655;22;19996;-75
2022/10/16 11:04:55;;;;;;;2.63;0.60;;;16.40;86.50;;;;;;6305425;22;20003;-75
2022/10/16 11:07:28;;;;;;;2.35;0.70;;;16.40;86.30;;;;;;6285581;22;20007;-76
2022/10/16 11:09:59;;;;;;;0.40;0.40;;;16.50;86.30;;;;;;6303380;22;20003;-76
2022/10/16 11:12:31;;;;;;;0.70;0.60;;;16.50;86.40;;;;;;6304982;22;20097;-75
2022/10/16 11:15:24;;;;;;;0.77;0.40;;;16.60;86.30;;;;;;6277341;22;20015;-75
2022/10/16 11:17:57;;;;;;;1.75;0.38;;;16.60;86.10;;;;;;6305383;22;20003;-76
2022/10/16 11:20:44;;;;;;;1.27;0.60;;;16.60;85.90;;;;;;6300101;22;19999;-76
2022/10/16 11:23:18;;;;;;;1.23;0.50;;;16.70;85.70;;;;;;6302026;22;20007;-75
2022/10/16 11:25:45;;;;;;;0.70;0.52;;;16.70;85.60;;;;;;6304953;22;20003;-74
2022/10/16 11:28:16;;;;;;;1.27;0.60;;;16.70;85.50;;;;;;6305144;22;20000;-75
2022/10/16 11:31:04;;;;;;;1.63;0.65;;;16.80;85.30;;;;;;6304924;22;20126;-75
2022/10/16 11:33:39;;;;;;;0.85;0.40;;;16.90;85.90;;;;;;6277267;22;20004;-75
2022/10/16 11:36:30;;;;;;;0.93;0.40;;;16.90;85.20;;;;;;6275134;22;20086;-75
2022/10/16 11:39:15;;;;;;;;;;;17.00;85.10;;;;;;6278355;22;20018;-76
2022/10/16 11:41:47;;;;;;;0.88;0.45;;;17.10;84.90;;;;;;6304534;22;19899;-75
2022/10/16 11:44:30;;;;;;;0.73;0.40;;;17.20;84.60;;;;;;6278103;22;20085;-75
2022/10/16 11:47:18;;;;;;;1.40;0.60;;;17.20;84.40;;;;;;6305048;22;20003;-75
2022/10/16 11:49:45;;;;;;;0.70;0.30;;;17.20;84.40;;;;;;6304558;22;20014;-75
2022/10/16 11:52:46;;;;;;;1.15;0.40;;;17.30;84.40;;;;;;6305341;22;20018;-76
2022/10/16 11:55:18;;;;;;;1.13;0.52;;;17.30;84.30;;;;;;6272224;22;20011;-76
2022/10/16 11:57:49;;;;;;;1.30;0.60;;;17.30;84.20;;;;;;6304530;22;19999;-75
2022/10/16 12:00:28;;;;;;;0.47;0.40;;;17.30;84.10;;;;;;6277287;22;20009;-75
2022/10/16 12:03:08;;;;;;;2.22;0.60;;;17.50;84.00;;;;;;6250669;22;20011;-75
2022/10/16 12:05:52;;;;;;;0.98;0.47;;;17.50;83.60;;;;;;6276737;22;20000;-75
2022/10/16 12:08:18;;;;;;;0.35;0.30;;;17.50;83.50;;;;;;6304829;22;20464;-75
2022/10/16 12:10:47;;;;;;;1.70;0.50;;;17.60;83.40;;;;;;6305163;22;20019;-75
2022/10/16 12:13:32;;;;;;;0.38;0.30;;;17.70;83.50;;;;;;6274689;22;20090;-75
2022/10/16 12:16:20;;;;;;;0.70;0.40;;;17.80;83.20;;;;;;6305492;22;20060;-75
2022/10/16 12:18:47;;;;;;;1.08;0.50;;;17.90;82.90;;;;;;6271632;22;19996;-74
2022/10/16 12:21:15;;;;;;;0.80;0.47;;;17.90;82.70;;;;;;6305120;22;20050;-74
2022/10/16 12:24:00;;;;;;;0.40;0.30;;;17.90;82.50;;;;;;6304288;22;20095;-75
2022/10/16 12:26:29;;;;;;;1.85;0.50;;;18.00;82.50;;;;;;6249783;22;20000;-74
2022/10/16 12:28:57;;;;;;;0.63;0.43;;;18.00;82.40;;;;;;6304142;22;20003;-75
2022/10/16 12:31:24;;;;;;;2.83;0.60;;;18.00;82.20;;;;;;6276946;22;20004;-75
2022/10/16 12:34:03;;;;;;;1.13;0.50;;;18.00;82.20;;;;;;6304788;22;20050;-74
2022/10/16 12:36:32;;;;;;;0.28;0.28;;;18.00;82.20;;;;;;6276890;22;20019;-74
2022/10/16 12:38:59;;;;;;;1.20;0.38;;;18.00;82.30;;;;;;6275063;22;20006;-75
2022/10/16 12:41:37;;;;;;;1.50;0.40;;;18.00;82.30;;;;;;6276279;22;20008;-74
2022/10/16 12:44:03;;;;;;;0.75;0.30;;;18.00;82.30;;;;;;6304544;22;20003;-74
2022/10/16 12:46:39;;;;;;;1.85;0.60;;;18.10;82.30;;;;;;6304795;22;20015;-74
2022/10/16 12:49:28;;;;;;;0.65;0.40;;;18.00;82.00;;;;;;6304263;22;19999;-75
2022/10/16 12:51:55;;;;;;;1.55;0.60;;;18.20;81.80;;;;;;6304960;22;19999;-74
2022/10/16 12:54:35;;;;;;;2.15;0.40;;;18.30;81.60;;;;;;6305198;22;20022;-74
2022/10/16 12:57:25;;;;;;;1.27;0.40;;;18.30;81.30;;;;;;6305190;22;20537;-74
2022/10/16 13:00:17;;;;;;;1.48;0.40;;;18.30;81.20;;;;;;6304467;22;20002;-74
2022/10/16 13:03:02;;;;;;;1.25;0.50;;;18.40;81.20;;;;;;6300419;22;20008;-74
2022/10/16 13:05:54;;;;;;;0.93;0.52;;;18.40;81.00;;;;;;6277142;22;20078;-75
2022/10/16 13:08:55;;;;;;;1.75;0.47;;;18.30;80.90;;;;;;6304629;22;20105;-73